sensor_id;sensor_type;location;lat;lon;timestamp;temperature;humidity
54409;DHT22;40315;48.620;9.828;2023-05-10T00:01:03;14.90;99.90
54409;DHT22;40315;48.620;9.828;2023-05-10T00:03:30;15.90;99.90
54409;DHT22;40315;48.620;9.828;2023-05-10T00:05:58;15.00;99.90
54409;DHT22;40315;48.620;9.828;2023-05-10T00:08:25;14.90;99.90
54409;DHT22;40315;48.620;9.828;2023-05-10T00:10:54;14.80;99.90
54409;DHT22;40315;48.620;9.828;2023-05-10T00:13:21;14.90;99.90
54409;DHT22;40315;48.620;9.828;2023-05-10T00:15:48;15.00;99.90
54409;DHT22;40315;48.620;9.828;2023-05-10T00:18:16;15.00;99.90
54409;DHT22;40315;48.620;9.828;2023-05-10T00:20:43;14.90;99.90
54409;DHT22;40315;48.620;9.828;2023-05-10T00:23:11;14.90;99.90
54409;DHT22;40315;48.620;9.828;2023-05-10T00:25:38;14.80;99.90
54409;DHT22;40315;48.620;9.828;2023-05-10T00:28:06;14.80;99.90
54409;DHT22;40315;48.620;9.828;2023-05-10T00:30:33;14.80;99.90
54409;DHT22;40315;48.620;9.828;2023-05-10T00:33:03;14.70;99.90
54409;DHT22;40315;48.620;9.828;2023-05-10T00:35:30;14.70;99.90
54409;DHT22;40315;48.620;9.828;2023-05-10T00:38:00;13.40;99.90
54409;DHT22;40315;48.620;9.828;2023-05-10T00:40:28;14.60;99.90
54409;DHT22;40315;48.620;9.828;2023-05-10T00:43:00;14.60;99.90
54409;DHT22;40315;48.620;9.828;2023-05-10T00:45:28;14.60;99.90
54409;DHT22;40315;48.620;9.828;2023-05-10T00:47:56;14.50;99.90
54409;DHT22;40315;48.620;9.828;2023-05-10T00:50:23;14.30;99.90
54409;DHT22;40315;48.620;9.828;2023-05-10T00:52:52;14.30;99.90
54409;DHT22;40315;48.620;9.828;2023-05-10T00:55:19;14.30;99.90
54409;DHT22;40315;48.620;9.828;2023-05-10T00:57:47;14.30;99.90
54409;DHT22;40315;48.620;9.828;2023-05-10T01:00:16;14.30;99.90
54409;DHT22;40315;48.620;9.828;2023-05-10T01:03:13;14.40;99.90
54409;DHT22;40315;48.620;9.828;2023-05-10T01:05:42;14.40;99.90
54409;DHT22;40315;48.620;9.828;2023-05-10T01:08:09;14.40;99.90
54409;DHT22;40315;48.620;9.828;2023-05-10T01:10:36;14.40;99.90
54409;DHT22;40315;48.620;9.828;2023-05-10T01:13:04;14.40;99.90
54409;DHT22;40315;48.620;9.828;2023-05-10T01:15:41;14.30;99.90
54409;DHT22;40315;48.620;9.828;2023-05-10T01:18:08;14.20;99.90
54409;DHT22;40315;48.620;9.828;2023-05-10T01:20:41;14.20;99.90
54409;DHT22;40315;48.620;9.828;2023-05-10T01:23:36;14.20;99.90
54409;DHT22;40315;48.620;9.828;2023-05-10T01:26:26;14.10;99.90
54409;DHT22;40315;48.620;9.828;2023-05-10T01:29:33;14.10;99.90
54409;DHT22;40315;48.620;9.828;2023-05-10T01:32:18;14.00;99.90
54409;DHT22;40315;48.620;9.828;2023-05-10T01:34:53;14.00;99.90
54409;DHT22;40315;48.620;9.828;2023-05-10T01:37:24;13.80;99.90
54409;DHT22;40315;48.620;9.828;2023-05-10T01:40:00;13.50;99.90
54409;DHT22;40315;48.620;9.828;2023-05-10T01:42:33;13.20;99.90
54409;DHT22;40315;48.620;9.828;2023-05-10T01:45:10;13.00;99.90
54409;DHT22;40315;48.620;9.828;2023-05-10T20:08:10;12.50;99.90
54409;DHT22;40315;48.620;9.828;2023-05-10T20:10:37;12.50;99.90
54409;DHT22;40315;48.620;9.828;2023-05-10T20:13:05;11.80;99.90
54409;DHT22;40315;48.620;9.828;2023-05-10T20:15:32;12.60;99.90
54409;DHT22;40315;48.620;9.828;2023-05-10T20:17:59;12.60;99.90
54409;DHT22;40315;48.620;9.828;2023-05-10T20:20:28;12.50;99.90
54409;DHT22;40315;48.620;9.828;2023-05-10T20:22:58;12.50;99.90
54409;DHT22;40315;48.620;9.828;2023-05-10T20:25:26;12.10;99.90
54409;DHT22;40315;48.620;9.828;2023-05-10T20:27:53;12.30;99.90
54409;DHT22;40315;48.620;9.828;2023-05-10T20:30:20;12.30;99.90
54409;DHT22;40315;48.620;9.828;2023-05-10T20:32:50;12.30;99.90
54409;DHT22;40315;48.620;9.828;2023-05-10T20:35:18;12.30;99.90
54409;DHT22;40315;48.620;9.828;2023-05-10T20:37:47;12.30;99.90
54409;DHT22;40315;48.620;9.828;2023-05-10T20:40:14;12.40;99.90
54409;DHT22;40315;48.620;9.828;2023-05-10T20:42:43;12.50;99.90
54409;DHT22;40315;48.620;9.828;2023-05-10T20:45:11;12.50;99.90
54409;DHT22;40315;48.620;9.828;2023-05-10T20:47:39;12.50;99.90
54409;DHT22;40315;48.620;9.828;2023-05-10T20:50:12;12.50;99.90
54409;DHT22;40315;48.620;9.828;2023-05-10T20:52:46;12.50;99.90
54409;DHT22;40315;48.620;9.828;2023-05-10T20:55:15;12.30;99.90
54409;DHT22;40315;48.620;9.828;2023-05-10T20:57:44;12.30;99.90
54409;DHT22;40315;48.620;9.828;2023-05-10T21:00:12;12.20;99.90
54409;DHT22;40315;48.620;9.828;2023-05-10T21:02:41;12.10;99.90
54409;DHT22;40315;48.620;9.828;2023-05-10T21:05:11;12.00;99.90
54409;DHT22;40315;48.620;9.828;2023-05-10T21:07:38;12.10;99.90
54409;DHT22;40315;48.620;9.828;2023-05-10T21:10:06;11.90;99.90
54409;DHT22;40315;48.620;9.828;2023-05-10T21:12:34;11.80;99.90
54409;DHT22;40315;48.620;9.828;2023-05-10T21:15:03;11.80;99.90
54409;DHT22;40315;48.620;9.828;2023-05-10T21:17:31;11.70;99.90
54409;DHT22;40315;48.620;9.828;2023-05-10T21:19:58;11.50;99.90
54409;DHT22;40315;48.620;9.828;2023-05-10T21:22:25;11.50;99.90
54409;DHT22;40315;48.620;9.828;2023-05-10T21:24:52;11.50;99.90
54409;DHT22;40315;48.620;9.828;2023-05-10T21:27:21;11.60;99.90
54409;DHT22;40315;48.620;9.828;2023-05-10T21:29:48;11.60;99.90
54409;DHT22;40315;48.620;9.828;2023-05-10T21:32:17;11.50;99.90
54409;DHT22;40315;48.620;9.828;2023-05-10T21:34:43;11.50;99.90
54409;DHT22;40315;48.620;9.828;2023-05-10T21:37:11;11.60;99.90
54409;DHT22;40315;48.620;9.828;2023-05-10T21:39:37;11.70;99.90
54409;DHT22;40315;48.620;9.828;2023-05-10T21:42:05;11.60;99.90
54409;DHT22;40315;48.620;9.828;2023-05-10T21:44:34;11.70;99.90
54409;DHT22;40315;48.620;9.828;2023-05-10T21:47:04;11.70;99.90
54409;DHT22;40315;48.620;9.828;2023-05-10T21:49:35;11.70;99.90
54409;DHT22;40315;48.620;9.828;2023-05-10T21:52:02;11.70;99.90
54409;DHT22;40315;48.620;9.828;2023-05-10T21:54:29;11.70;99.90
54409;DHT22;40315;48.620;9.828;2023-05-10T21:56:57;11.70;99.90
54409;DHT22;40315;48.620;9.828;2023-05-10T21:59:26;11.60;99.90
54409;DHT22;40315;48.620;9.828;2023-05-10T22:01:53;11.70;99.90
54409;DHT22;40315;48.620;9.828;2023-05-10T22:04:23;11.70;99.90
54409;DHT22;40315;48.620;9.828;2023-05-10T22:06:51;11.70;99.90
54409;DHT22;40315;48.620;9.828;2023-05-10T22:09:18;11.80;99.90
54409;DHT22;40315;48.620;9.828;2023-05-10T22:11:45;11.70;99.90
54409;DHT22;40315;48.620;9.828;2023-05-10T22:14:15;11.80;99.90
54409;DHT22;40315;48.620;9.828;2023-05-10T22:16:42;11.80;99.90
54409;DHT22;40315;48.620;9.828;2023-05-10T22:19:11;11.80;99.90
54409;DHT22;40315;48.620;9.828;2023-05-10T22:21:38;11.70;99.90
54409;DHT22;40315;48.620;9.828;2023-05-10T22:24:07;11.70;99.90
54409;DHT22;40315;48.620;9.828;2023-05-10T22:26:34;11.80;99.90
54409;DHT22;40315;48.620;9.828;2023-05-10T22:29:01;11.80;99.90
54409;DHT22;40315;48.620;9.828;2023-05-10T22:31:28;11.70;99.90
54409;DHT22;40315;48.620;9.828;2023-05-10T22:33:56;11.70;99.90
54409;DHT22;40315;48.620;9.828;2023-05-10T22:36:23;11.60;99.90
54409;DHT22;40315;48.620;9.828;2023-05-10T22:38:50;11.60;99.90
54409;DHT22;40315;48.620;9.828;2023-05-10T22:41:18;11.70;99.90
54409;DHT22;40315;48.620;9.828;2023-05-10T22:43:45;11.70;99.90
54409;DHT22;40315;48.620;9.828;2023-05-10T22:46:12;11.70;99.90
54409;DHT22;40315;48.620;9.828;2023-05-10T22:48:40;11.70;99.90
54409;DHT22;40315;48.620;9.828;2023-05-10T22:51:08;11.60;99.90
54409;DHT22;40315;48.620;9.828;2023-05-10T22:53:37;11.70;99.90
54409;DHT22;40315;48.620;9.828;2023-05-10T22:56:05;11.70;99.90
54409;DHT22;40315;48.620;9.828;2023-05-10T22:58:33;11.70;99.90
54409;DHT22;40315;48.620;9.828;2023-05-10T23:01:01;11.60;99.90
54409;DHT22;40315;48.620;9.828;2023-05-10T23:03:30;11.60;99.90
54409;DHT22;40315;48.620;9.828;2023-05-10T23:05:57;11.60;99.90
54409;DHT22;40315;48.620;9.828;2023-05-10T23:08:24;11.60;99.90
54409;DHT22;40315;48.620;9.828;2023-05-10T23:10:51;11.50;99.90
54409;DHT22;40315;48.620;9.828;2023-05-10T23:13:18;11.50;99.90
54409;DHT22;40315;48.620;9.828;2023-05-10T23:15:50;11.50;99.90
54409;DHT22;40315;48.620;9.828;2023-05-10T23:18:17;11.60;99.90
54409;DHT22;40315;48.620;9.828;2023-05-10T23:20:44;11.50;99.90
54409;DHT22;40315;48.620;9.828;2023-05-10T23:23:11;11.50;99.90
54409;DHT22;40315;48.620;9.828;2023-05-10T23:25:38;12.30;99.90
54409;DHT22;40315;48.620;9.828;2023-05-10T23:28:07;11.40;99.90
54409;DHT22;40315;48.620;9.828;2023-05-10T23:30:34;11.40;99.90
54409;DHT22;40315;48.620;9.828;2023-05-10T23:33:04;11.40;99.90
54409;DHT22;40315;48.620;9.828;2023-05-10T23:35:35;11.50;99.90
54409;DHT22;40315;48.620;9.828;2023-05-10T23:38:02;11.40;99.90
54409;DHT22;40315;48.620;9.828;2023-05-10T23:40:29;11.30;99.90
54409;DHT22;40315;48.620;9.828;2023-05-10T23:42:56;11.40;99.90
54409;DHT22;40315;48.620;9.828;2023-05-10T23:45:23;11.40;99.90
54409;DHT22;40315;48.620;9.828;2023-05-10T23:47:50;11.40;99.90
54409;DHT22;40315;48.620;9.828;2023-05-10T23:50:18;11.30;99.90
54409;DHT22;40315;48.620;9.828;2023-05-10T23:52:48;11.30;99.90
54409;DHT22;40315;48.620;9.828;2023-05-10T23:55:15;11.20;99.90
54409;DHT22;40315;48.620;9.828;2023-05-10T23:57:42;11.20;99.90
